createdAt,value
2022-09-28T00:00:08.102Z,10.50
2022-09-28T00:02:57.343Z,10.40
2022-09-28T00:05:43.711Z,10.40
2022-09-28T00:08:30.313Z,10.40
2022-09-28T00:11:20.742Z,10.40
2022-09-28T00:14:08.395Z,10.40
2022-09-28T00:16:54.509Z,10.40
2022-09-28T00:19:40.990Z,10.50
2022-09-28T00:22:27.334Z,10.40
2022-09-28T00:25:13.791Z,10.40
2022-09-28T00:28:01.826Z,10.40
2022-09-28T00:30:48.157Z,10.40
2022-09-28T00:33:34.258Z,10.30
2022-09-28T00:36:21.041Z,10.40
2022-09-28T00:39:09.511Z,10.30
2022-09-28T00:41:56.298Z,10.40
2022-09-28T00:44:59.093Z,10.50
2022-09-28T00:47:51.474Z,10.50
2022-09-28T00:50:39.673Z,10.50
2022-09-28T00:53:30.910Z,10.40
2022-09-28T00:56:20.921Z,10.50
2022-09-28T00:59:10.409Z,10.50
2022-09-28T01:01:58.179Z,10.50
2022-09-28T01:04:44.974Z,10.50
2022-09-28T01:07:33.071Z,10.50
2022-09-28T01:10:19.584Z,10.50
2022-09-28T01:13:06.072Z,10.50
2022-09-28T01:16:02.065Z,10.50
2022-09-28T01:19:00.240Z,10.50
2022-09-28T01:21:53.077Z,10.40
2022-09-28T01:24:43.054Z,10.30
2022-09-28T01:27:34.190Z,10.50
2022-09-28T01:30:22.393Z,10.40
2022-09-28T01:33:12.671Z,10.40
2022-09-28T01:36:04.566Z,10.40
2022-09-28T01:38:56.447Z,10.50
2022-09-28T01:41:44.960Z,10.50
2022-09-28T01:44:39.710Z,10.40
2022-09-28T01:47:29.978Z,10.40
2022-09-28T01:50:19.191Z,10.40
2022-09-28T01:53:11.289Z,10.30
2022-09-28T01:56:02.466Z,10.20
2022-09-28T01:58:52.829Z,10.20
2022-09-28T02:01:44.375Z,10.20
2022-09-28T02:04:36.907Z,10.20
2022-09-28T02:07:27.311Z,10.20
2022-09-28T02:10:17.508Z,10.20
2022-09-28T02:13:09.082Z,10.20
2022-09-28T02:16:02.705Z,10.10
2022-09-28T02:18:51.128Z,10.00
2022-09-28T02:21:42.851Z,10.00
2022-09-28T02:24:36.910Z,10.00
2022-09-28T02:27:32.831Z,10.00
2022-09-28T02:30:19.947Z,10.00
2022-09-28T02:33:12.470Z,9.90
2022-09-28T02:36:01.645Z,10.00
2022-09-28T02:38:48.030Z,10.00
2022-09-28T02:41:53.844Z,10.00
2022-09-28T02:45:05.326Z,9.90
2022-09-28T02:48:02.498Z,9.90
2022-09-28T02:51:00.283Z,9.80
2022-09-28T02:54:07.019Z,9.90
2022-09-28T02:57:20.125Z,9.90
2022-09-28T03:00:08.662Z,9.90
2022-09-28T03:03:02.990Z,10.00
2022-09-28T03:05:58.830Z,10.10
2022-09-28T03:08:49.427Z,10.10
2022-09-28T03:11:40.190Z,10.10
2022-09-28T03:14:26.534Z,10.10
2022-09-28T03:17:13.342Z,10.10
2022-09-28T03:19:59.874Z,10.20
2022-09-28T03:23:06.053Z,10.30
2022-09-28T03:25:53.616Z,10.20
2022-09-28T03:28:41.942Z,10.20
2022-09-28T03:31:28.445Z,10.30
2022-09-28T03:34:14.907Z,10.30
2022-09-28T03:37:01.131Z,10.30
2022-09-28T03:39:47.711Z,10.20
2022-09-28T03:42:37.414Z,10.30
2022-09-28T03:45:25.342Z,10.30
2022-09-28T03:48:12.091Z,10.20
2022-09-28T03:51:00.402Z,10.10
2022-09-28T03:53:46.847Z,10.20
2022-09-28T03:56:33.383Z,10.20
2022-09-28T03:59:19.586Z,10.10
2022-09-28T04:02:07.654Z,10.10
2022-09-28T04:04:54.333Z,10.10
2022-09-28T04:07:40.989Z,10.10
2022-09-28T04:10:27.709Z,10.10
2022-09-28T04:13:14.059Z,10.00
2022-09-28T04:16:02.022Z,10.00
2022-09-28T04:18:49.769Z,10.00
2022-09-28T04:21:36.001Z,10.00
2022-09-28T04:24:22.440Z,10.00
2022-09-28T04:27:26.248Z,10.10
2022-09-28T04:30:13.188Z,10.00
2022-09-28T04:32:59.822Z,9.90
2022-09-28T04:35:47.719Z,10.00
2022-09-28T04:38:51.743Z,10.10
2022-09-28T04:41:39.366Z,10.10
2022-09-28T04:44:25.657Z,10.10
2022-09-28T04:47:12.111Z,10.10
2022-09-28T04:49:58.509Z,10.10
2022-09-28T04:52:46.369Z,10.10
2022-09-28T04:55:33.046Z,10.00
2022-09-28T04:58:19.881Z,10.00
2022-09-28T05:01:08.096Z,9.90
2022-09-28T05:03:54.768Z,10.00
2022-09-28T05:06:40.938Z,10.00
2022-09-28T05:09:28.985Z,10.00
2022-09-28T05:12:15.321Z,10.00
2022-09-28T05:15:01.854Z,9.80
2022-09-28T05:17:48.108Z,9.90
2022-09-28T05:20:34.671Z,9.80
2022-09-28T05:23:20.909Z,9.70
2022-09-28T05:26:09.251Z,9.70
2022-09-28T05:28:55.485Z,9.70
2022-09-28T05:31:42.083Z,9.90
2022-09-28T05:34:28.953Z,10.00
2022-09-28T05:37:15.231Z,10.00
2022-09-28T05:40:01.859Z,10.10
2022-09-28T05:42:50.235Z,10.10
2022-09-28T05:45:36.834Z,10.10
2022-09-28T05:48:23.549Z,10.10
2022-09-28T05:51:11.025Z,10.10
2022-09-28T05:54:01.846Z,10.20
2022-09-28T05:56:51.086Z,10.20
2022-09-28T05:59:39.140Z,10.10
2022-09-28T06:02:25.729Z,10.30
2022-09-28T06:05:11.977Z,10.30
2022-09-28T06:07:59.222Z,10.30
2022-09-28T06:10:45.511Z,10.20
2022-09-28T06:13:32.067Z,10.30
2022-09-28T06:16:19.818Z,10.30
2022-09-28T06:19:06.242Z,10.40
2022-09-28T06:21:52.536Z,10.40
2022-09-28T06:24:38.918Z,10.40
2022-09-28T06:27:25.230Z,10.40
2022-09-28T06:30:13.571Z,10.40
2022-09-28T06:33:02.661Z,10.50
2022-09-28T06:35:49.043Z,10.60
2022-09-28T06:38:37.716Z,10.70
2022-09-28T06:41:24.312Z,10.70
2022-09-28T06:44:11.013Z,10.70
2022-09-28T06:46:57.671Z,10.70
2022-09-28T06:49:51.286Z,10.70
2022-09-28T06:52:37.795Z,10.80
2022-09-28T06:55:24.093Z,10.80
2022-09-28T06:58:12.909Z,10.90
2022-09-28T07:01:00.387Z,10.90
2022-09-28T07:03:47.170Z,10.90
2022-09-28T07:06:35.027Z,11.00
2022-09-28T07:09:32.175Z,11.00
2022-09-28T07:12:19.763Z,10.90
2022-09-28T07:15:07.321Z,10.90
2022-09-28T07:18:02.423Z,10.90
2022-09-28T07:20:54.584Z,10.90
2022-09-28T07:23:52.530Z,10.90
2022-09-28T07:26:39.427Z,10.80
2022-09-28T07:29:25.846Z,10.80
2022-09-28T07:32:12.219Z,10.80
2022-09-28T07:34:59.169Z,10.80
2022-09-28T07:37:45.711Z,10.80
2022-09-28T07:40:52.278Z,10.90
2022-09-28T07:43:40.040Z,10.90
2022-09-28T07:46:26.410Z,10.90
2022-09-28T07:49:18.155Z,10.90
2022-09-28T07:52:04.422Z,10.90
2022-09-28T07:54:52.126Z,10.90
2022-09-28T07:57:40.411Z,10.90
2022-09-28T08:00:28.936Z,10.90
2022-09-28T08:03:19.468Z,11.00
2022-09-28T08:06:09.839Z,11.00
2022-09-28T08:08:56.905Z,11.10
2022-09-28T08:11:43.880Z,11.20
2022-09-28T08:14:34.257Z,11.20
2022-09-28T08:17:20.487Z,11.30
2022-09-28T08:20:25.568Z,11.40
2022-09-28T08:23:12.279Z,11.40
2022-09-28T08:25:59.031Z,11.40
2022-09-28T08:28:47.606Z,11.50
2022-09-28T08:31:35.997Z,11.50
2022-09-28T08:34:22.478Z,11.50
2022-09-28T08:37:10.046Z,11.60
2022-09-28T08:39:56.598Z,11.60
2022-09-28T08:42:44.902Z,11.60
2022-09-28T08:45:34.981Z,11.50
2022-09-28T08:48:45.701Z,11.40
2022-09-28T08:51:39.714Z,11.40
2022-09-28T08:54:34.521Z,11.50
2022-09-28T08:57:25.673Z,11.50
2022-09-28T09:00:20.806Z,11.50
2022-09-28T09:03:10.706Z,11.50
2022-09-28T09:06:06.746Z,11.70
2022-09-28T09:09:04.108Z,11.80
2022-09-28T09:12:04.136Z,11.90
2022-09-28T09:15:12.317Z,11.90
2022-09-28T09:18:19.268Z,12.10
2022-09-28T09:21:15.629Z,12.10
2022-09-28T09:24:11.700Z,12.20
2022-09-28T09:27:06.901Z,12.20
2022-09-28T09:30:05.703Z,12.30
2022-09-28T09:33:07.530Z,12.40
2022-09-28T09:36:04.828Z,12.40
2022-09-28T09:39:06.546Z,12.50
2022-09-28T09:42:11.984Z,12.50
2022-09-28T09:45:19.863Z,12.20
2022-09-28T09:48:11.157Z,12.20
2022-09-28T09:51:02.649Z,12.10
2022-09-28T09:53:53.961Z,11.90
2022-09-28T09:56:48.828Z,12.00
2022-09-28T09:59:38.933Z,12.00
2022-09-28T10:02:27.442Z,12.20
2022-09-28T10:05:22.659Z,12.30
2022-09-28T10:08:16.589Z,12.40
2022-09-28T10:11:08.618Z,12.40
2022-09-28T10:13:56.866Z,12.30
2022-09-28T10:16:44.354Z,12.40
2022-09-28T10:19:33.695Z,12.40
2022-09-28T10:22:24.138Z,12.40
2022-09-28T10:25:12.532Z,12.50
2022-09-28T10:28:01.218Z,12.40
2022-09-28T10:30:49.244Z,12.40
2022-09-28T10:33:36.453Z,12.40
2022-09-28T10:36:25.506Z,12.50
2022-09-28T10:39:31.051Z,12.50
2022-09-28T10:42:23.794Z,12.50
2022-09-28T10:45:22.475Z,12.50
2022-09-28T10:48:19.096Z,12.60
2022-09-28T10:51:08.193Z,12.70
2022-09-28T10:54:02.812Z,12.70
2022-09-28T10:56:51.147Z,12.80
2022-09-28T10:59:42.907Z,12.80
2022-09-28T11:02:35.404Z,12.90
2022-09-28T11:05:27.675Z,13.40
2022-09-28T11:11:11.274Z,14.40
2022-09-28T11:14:01.122Z,14.40
2022-09-28T11:16:47.383Z,14.20
2022-09-28T11:19:33.994Z,14.00
2022-09-28T11:22:29.994Z,14.00
2022-09-28T11:25:25.042Z,13.80
2022-09-28T11:28:25.558Z,13.70
2022-09-28T11:31:12.718Z,13.70
2022-09-28T11:34:06.105Z,13.80
2022-09-28T11:37:12.693Z,14.10
2022-09-28T11:40:15.314Z,14.40
2022-09-28T11:43:12.282Z,14.50
2022-09-28T11:46:09.274Z,14.40
2022-09-28T11:49:02.162Z,14.40
2022-09-28T11:51:51.328Z,14.40
2022-09-28T11:54:43.905Z,14.40
2022-09-28T11:57:37.347Z,14.30
2022-09-28T12:00:25.309Z,14.20
2022-09-28T12:03:17.126Z,14.10
2022-09-28T12:06:07.681Z,14.10
2022-09-28T12:09:00.687Z,14.00
2022-09-28T12:11:51.279Z,13.80
2022-09-28T12:14:41.206Z,13.90
2022-09-28T12:17:33.429Z,13.80
2022-09-28T12:20:23.762Z,13.80
2022-09-28T12:23:16.427Z,13.60
2022-09-28T12:26:05.648Z,13.50
2022-09-28T12:28:56.943Z,13.40
2022-09-28T12:31:59.363Z,13.20
2022-09-28T12:34:45.784Z,13.10
2022-09-28T12:37:46.452Z,13.10
2022-09-28T12:40:39.841Z,13.00
2022-09-28T12:44:00.479Z,13.00
2022-09-28T12:47:19.830Z,13.10
2022-09-28T12:50:38.081Z,13.10
2022-09-28T12:53:52.979Z,13.10
2022-09-28T12:56:43.286Z,13.00
2022-09-28T12:59:33.086Z,12.90
2022-09-28T13:02:38.221Z,12.90
2022-09-28T13:05:51.400Z,12.90
2022-09-28T13:08:50.394Z,12.70
2022-09-28T13:11:44.913Z,12.70
2022-09-28T13:15:05.878Z,12.70
2022-09-28T13:18:15.697Z,12.70
2022-09-28T13:21:11.249Z,12.70
2022-09-28T13:24:27.750Z,12.80
2022-09-28T13:27:16.318Z,12.90
2022-09-28T13:30:06.269Z,13.00
2022-09-28T13:32:54.703Z,13.10
2022-09-28T13:35:44.550Z,13.10
2022-09-28T13:38:49.442Z,13.20
2022-09-28T13:41:38.841Z,13.20
2022-09-28T13:44:48.574Z,13.30
2022-09-28T13:47:46.903Z,13.30
2022-09-28T13:50:56.111Z,13.30
2022-09-28T13:54:04.378Z,13.30
2022-09-28T13:56:57.706Z,13.10
2022-09-28T14:00:02.801Z,13.20
2022-09-28T14:02:53.831Z,13.30
2022-09-28T14:05:54.115Z,13.30
2022-09-28T14:08:45.103Z,13.30
2022-09-28T14:11:45.076Z,13.30
2022-09-28T14:14:48.535Z,13.20
2022-09-28T14:17:55.510Z,13.00
2022-09-28T14:20:53.845Z,12.70
2022-09-28T14:23:59.688Z,12.60
2022-09-28T14:27:24.417Z,12.60
2022-09-28T14:30:22.169Z,12.70
2022-09-28T14:33:25.762Z,12.90
2022-09-28T14:36:47.323Z,13.10
2022-09-28T14:39:55.482Z,13.00
2022-09-28T14:43:36.388Z,13.00
2022-09-28T14:46:37.125Z,13.10
2022-09-28T14:49:51.246Z,13.10
2022-09-28T14:52:45.896Z,13.00
2022-09-28T14:55:35.721Z,12.90
2022-09-28T14:58:26.592Z,12.90
2022-09-28T15:01:20.135Z,12.90
2022-09-28T15:04:10.979Z,13.00
2022-09-28T15:06:58.519Z,13.00
2022-09-28T15:09:45.058Z,13.20
2022-09-28T15:12:32.454Z,13.20
2022-09-28T15:15:29.392Z,13.10
2022-09-28T15:18:43.892Z,13.00
2022-09-28T15:21:38.562Z,12.90
2022-09-28T15:24:27.133Z,12.80
2022-09-28T15:27:18.851Z,12.80
2022-09-28T15:30:26.903Z,12.70
2022-09-28T15:33:43.358Z,12.60
2022-09-28T15:36:32.246Z,12.50
2022-09-28T15:39:23.302Z,12.50
2022-09-28T15:42:10.026Z,12.50
2022-09-28T15:45:27.462Z,12.40
2022-09-28T15:48:29.035Z,12.40
2022-09-28T15:51:15.686Z,12.30
2022-09-28T15:54:05.443Z,12.30
2022-09-28T15:56:53.596Z,12.30
2022-09-28T15:59:43.890Z,12.20
2022-09-28T16:02:32.037Z,12.20
2022-09-28T16:05:35.625Z,12.20
2022-09-28T16:08:25.467Z,12.10
2022-09-28T16:11:17.846Z,12.10
2022-09-28T16:14:08.908Z,12.00
2022-09-28T16:16:55.290Z,12.00
2022-09-28T16:19:43.749Z,11.90
2022-09-28T16:22:32.461Z,11.90
2022-09-28T16:25:23.832Z,11.90
2022-09-28T16:28:48.882Z,11.80
2022-09-28T16:31:36.475Z,11.80
2022-09-28T16:34:28.510Z,11.90
2022-09-28T16:37:32.403Z,11.80
2022-09-28T16:40:18.805Z,11.90
2022-09-28T16:43:06.955Z,11.80
2022-09-28T16:45:57.964Z,11.80
2022-09-28T16:48:48.712Z,11.70
2022-09-28T16:51:35.060Z,11.70
2022-09-28T16:54:42.281Z,11.60
2022-09-28T16:57:28.802Z,11.50
2022-09-28T17:00:20.757Z,11.40
2022-09-28T17:03:17.277Z,11.20
2022-09-28T17:06:05.199Z,11.10
2022-09-28T17:08:51.341Z,11.00
2022-09-28T17:11:38.982Z,10.90
2022-09-28T17:14:25.581Z,10.80
2022-09-28T17:17:16.847Z,10.80
2022-09-28T17:20:18.534Z,10.80
2022-09-28T17:23:05.054Z,10.80
2022-09-28T17:25:52.085Z,10.70
2022-09-28T17:28:40.097Z,10.60
2022-09-28T17:31:27.333Z,10.50
2022-09-28T17:34:16.499Z,10.50
2022-09-28T17:37:03.277Z,10.50
2022-09-28T17:39:49.551Z,10.50
2022-09-28T17:42:36.069Z,10.50
2022-09-28T17:45:28.118Z,10.50
2022-09-28T17:48:16.703Z,10.60
2022-09-28T17:51:03.814Z,10.50
2022-09-28T17:53:50.309Z,10.50
2022-09-28T17:56:37.848Z,10.40
2022-09-28T17:59:24.467Z,10.50
2022-09-28T18:02:13.116Z,10.50
2022-09-28T18:04:59.634Z,10.60
2022-09-28T18:07:47.764Z,10.60
2022-09-28T18:10:34.563Z,10.80
2022-09-28T18:13:20.714Z,10.70
2022-09-28T18:16:07.596Z,10.60
2022-09-28T18:18:55.393Z,10.50
2022-09-28T18:21:41.794Z,10.30
2022-09-28T18:24:28.326Z,10.00
2022-09-28T18:27:14.935Z,10.10
2022-09-28T18:30:01.953Z,9.90
2022-09-28T18:32:48.273Z,9.70
2022-09-28T18:35:36.533Z,9.50
2022-09-28T18:38:22.883Z,9.80
2022-09-28T18:41:10.122Z,9.80
2022-09-28T18:44:00.655Z,9.90
2022-09-28T18:46:47.062Z,10.00
2022-09-28T18:49:34.909Z,10.00
2022-09-28T18:52:22.826Z,10.10
2022-09-28T18:55:10.238Z,10.00
2022-09-28T18:57:56.591Z,10.10
2022-09-28T19:00:43.666Z,10.00
2022-09-28T19:03:30.898Z,9.90
2022-09-28T19:06:17.750Z,9.90
2022-09-28T19:09:05.899Z,9.90
2022-09-28T19:11:52.144Z,9.90
2022-09-28T19:14:38.998Z,9.90
2022-09-28T19:17:25.151Z,9.90
2022-09-28T19:20:11.609Z,10.00
2022-09-28T19:22:57.771Z,10.00
2022-09-28T19:25:45.202Z,10.20
2022-09-28T19:28:32.038Z,10.10
2022-09-28T19:31:18.688Z,10.00
2022-09-28T19:34:06.700Z,10.00
2022-09-28T19:36:53.927Z,10.00
2022-09-28T19:39:40.591Z,9.90
2022-09-28T19:42:28.103Z,9.70
2022-09-28T19:45:14.717Z,9.70
2022-09-28T19:48:01.613Z,9.70
2022-09-28T19:50:56.732Z,9.60
2022-09-28T19:53:43.354Z,9.60
2022-09-28T19:56:31.685Z,9.50
2022-09-28T19:59:20.244Z,9.50
2022-09-28T20:02:09.002Z,9.40
2022-09-28T20:04:55.664Z,9.30
2022-09-28T20:07:42.267Z,9.20
2022-09-28T20:10:28.587Z,9.30
2022-09-28T20:13:14.902Z,9.30
2022-09-28T20:16:07.109Z,9.30
2022-09-28T20:18:58.511Z,9.20
2022-09-28T20:21:44.532Z,9.20
2022-09-28T20:24:31.518Z,9.10
2022-09-28T20:27:17.946Z,9.10
2022-09-28T20:30:04.764Z,9.10
2022-09-28T20:32:52.423Z,9.10
2022-09-28T20:35:40.417Z,9.10
2022-09-28T20:38:26.734Z,9.20
2022-09-28T20:41:15.378Z,9.20
2022-09-28T20:44:14.298Z,9.20
2022-09-28T20:47:01.143Z,9.00
2022-09-28T20:49:48.679Z,8.90
2022-09-28T20:52:35.077Z,8.90
2022-09-28T20:55:21.350Z,8.90
2022-09-28T20:58:07.913Z,8.90
2022-09-28T21:00:54.344Z,8.90
2022-09-28T21:03:40.899Z,8.80
2022-09-28T21:06:30.205Z,8.80
2022-09-28T21:09:16.853Z,8.80
2022-09-28T21:12:03.403Z,8.80
2022-09-28T21:14:49.965Z,8.80
2022-09-28T21:17:36.562Z,8.70
2022-09-28T21:20:22.809Z,8.70
2022-09-28T21:23:10.493Z,8.70
2022-09-28T21:26:06.375Z,8.80
2022-09-28T21:28:53.841Z,8.80
2022-09-28T21:31:42.383Z,8.80
2022-09-28T21:34:29.153Z,8.90
2022-09-28T21:37:15.635Z,8.90
2022-09-28T21:40:06.914Z,8.80
2022-09-28T21:42:53.550Z,8.90
2022-09-28T21:45:40.317Z,8.90
2022-09-28T21:48:28.513Z,8.80
2022-09-28T21:51:15.761Z,8.70
2022-09-28T21:54:02.178Z,8.70
2022-09-28T21:56:49.786Z,8.90
2022-09-28T21:59:36.406Z,8.90
2022-09-28T22:02:23.676Z,8.90
2022-09-28T22:05:10.789Z,8.90
2022-09-28T22:07:57.010Z,9.00
2022-09-28T22:10:43.649Z,9.00
2022-09-28T22:13:33.727Z,9.00
2022-09-28T22:16:21.899Z,9.00
2022-09-28T22:19:08.577Z,9.10
2022-09-28T22:21:55.134Z,9.10
2022-09-28T22:24:41.321Z,9.30
2022-09-28T22:27:31.606Z,9.10
2022-09-28T22:30:19.123Z,9.20
2022-09-28T22:33:05.808Z,9.20
2022-09-28T22:35:52.038Z,9.10
2022-09-28T22:38:38.495Z,9.10
2022-09-28T22:41:25.186Z,9.10
2022-09-28T22:44:11.732Z,9.00
2022-09-28T22:46:59.908Z,9.00
2022-09-28T22:49:46.510Z,8.90
2022-09-28T22:52:32.631Z,8.90
2022-09-28T22:55:19.244Z,8.80
2022-09-28T22:58:05.518Z,8.70
2022-09-28T23:00:51.967Z,8.70
2022-09-28T23:03:40.139Z,8.80
2022-09-28T23:06:28.325Z,8.70
2022-09-28T23:09:14.711Z,8.60
2022-09-28T23:12:01.380Z,8.50
2022-09-28T23:14:47.918Z,8.40
2022-09-28T23:17:34.350Z,8.40
2022-09-28T23:20:22.538Z,8.40
2022-09-28T23:23:09.317Z,8.40
2022-09-28T23:25:55.859Z,8.40
2022-09-28T23:28:41.996Z,8.30
2022-09-28T23:31:29.932Z,8.30
2022-09-28T23:34:16.702Z,8.30
2022-09-28T23:37:04.302Z,8.30
2022-09-28T23:39:50.930Z,8.30
2022-09-28T23:42:37.551Z,8.40
2022-09-28T23:45:23.735Z,8.30
2022-09-28T23:48:10.012Z,8.30
2022-09-28T23:50:56.675Z,8.20
2022-09-28T23:53:44.210Z,8.30
2022-09-28T23:56:30.463Z,8.30
2022-09-28T23:59:16.880Z,8.40
